This demonstration page uses our WeatherBlox Daily Observations layout. Learn more.

39.92423, -83.80882

Hourly Observations for May 16, 2017

Temp ( °F °C ) Dew Point ( °F °C ) Humidity (%) Winds ( mph kmh ) Pressure ( in mb ) Visibility ( mi km ) Precip ( " mm )
12:56 am 00:56 Clear 63 17.2 45 7.2 52 52 SE 9 15 30.01 1016 10 16.0934 0 0
1:56 am 01:56 Clear 62 16.7 45 7.2 54 54 SE 9 15 29.99 1016 10 16.0934 0 0
2:56 am 02:56 Clear 63 17.2 48 8.9 58 58 SSE 8 13 29.97 1015 10 16.0934 0 0
3:56 am 03:56 Clear 61 16.1 49 9.4 65 65 SSE 6 9 29.97 1015 10 16.0934 0 0
4:56 am 04:56 Clear 61 16.1 50 10 67 67 SSE 9 15 29.97 1015 10 16.0934 0 0
5:56 am 05:56 Clear 60 15.6 50 10 70 70 SE 6 9 29.99 1016 10 16.0934 0 0
6:56 am 06:56 Sunny 61 16.1 50 10 67 67 S 7 11 29.99 1016 10 16.0934 0 0
7:56 am 07:56 Sunny 65 18.3 52 11.1 63 63 S 9 15 30 1016 10 16.0934 0 0
8:56 am 08:56 Sunny 69 20.6 56 13.3 63 63 SW 9 15 30.01 1016 10 16.0934 0 0
9:56 am 09:56 Sunny 74 23.3 58 14.4 57 57 VRB 6 9 30 1016 10 16.0934 0 0
10:56 am 10:56 Sunny 77 25 60 15.6 56 56 WSW 12 19 30 1016 10 16.0934 0 0
11:56 am 11:56 Partly Cloudy 81 27.2 61 16.1 51 51 SW 10 17 29.99 1016 10 16.0934 0 0
12:56 pm 12:56 Sunny 82 27.8 58 14.4 44 44 WSW 15 24 29.98 1015 10 16.0934 0 0
1:56 pm 13:56 Sunny 83 28.3 59 15 44 44 SW 17 28 29.97 1015 10 16.0934 0 0
2:56 pm 14:56 Sunny 84 28.9 60 15.6 44 44 WSW 15 24 29.96 1014 10 16.0934 0 0
3:56 pm 15:56 Sunny 86 30 59 15 40 40 SSW 12 19 29.93 1014 10 16.0934 0 0
4:56 pm 16:56 Sunny 85 29.4 59 15 42 42 SW 15 24 29.91 1013 10 16.0934 0 0
5:56 pm 17:56 Sunny 85 29.4 58 14.4 40 40 S 13 20 29.9 1013 10 16.0934 0 0
6:56 pm 18:56 Sunny 83 28.3 56 13.3 40 40 SSW 14 22 29.9 1013 10 16.0934 0 0
7:56 pm 19:56 Sunny 81 27.2 58 14.4 45 45 SSW 8 13 29.9 1013 10 16.0934 0 0
8:56 pm 20:56 Clear 78 25.6 59 15 52 52 SSW 6 9 29.9 1013 10 16.0934 0 0
9:56 pm 21:56 Clear 76 24.4 60 15.6 58 58 SSW 7 11 29.9 1012 10 16.0934 0 0
10:56 pm 22:56 Clear 74 23.3 60 15.6 62 62 SSW 8 13 29.9 1013 10 16.0934 0 0
11:56 pm 23:56 Clear 73 22.8 60 15.6 64 64 SSW 8 13 29.89 1012 10 16.0934 0 0

Powered by AerisWeather